createdAt,value
2018-09-05T00:00:53.538Z,37.48
2018-09-05T00:03:20.951Z,37.38
2018-09-05T00:05:48.296Z,48.33
2018-09-05T00:08:15.616Z,45.73
2018-09-05T00:10:43.157Z,50.75
2018-09-05T00:13:10.461Z,53.83
2018-09-05T00:15:37.863Z,56.42
2018-09-05T00:18:05.161Z,50.63
2018-09-05T00:20:34.408Z,49.98
2018-09-05T00:23:01.666Z,49.42
2018-09-05T00:25:29.150Z,49.05
2018-09-05T00:27:56.427Z,51.58
2018-09-05T00:30:23.783Z,55.20
2018-09-05T00:32:51.084Z,48.48
2018-09-05T00:35:18.468Z,54.18
2018-09-05T00:37:45.870Z,49.73
2018-09-05T00:40:13.122Z,50.35
2018-09-05T00:42:41.306Z,48.98
2018-09-05T00:45:08.644Z,50.88
2018-09-05T00:47:35.900Z,46.77
2018-09-05T00:50:03.182Z,52.43
2018-09-05T00:52:31.846Z,55.25
2018-09-05T00:55:00.280Z,49.05
2018-09-05T00:57:27.860Z,50.58
2018-09-05T00:59:55.187Z,54.00
2018-09-05T01:02:22.544Z,48.52
2018-09-05T01:04:49.939Z,47.58
2018-09-05T01:07:24.103Z,47.78
2018-09-05T01:09:52.218Z,52.53
2018-09-05T01:12:20.834Z,51.00
2018-09-05T01:14:48.631Z,50.23
2018-09-05T01:17:15.920Z,48.73
2018-09-05T01:19:43.201Z,51.33
2018-09-05T01:22:10.600Z,49.30
2018-09-05T01:24:38.611Z,49.55
2018-09-05T01:27:06.463Z,47.05
2018-09-05T01:29:35.085Z,47.08
2018-09-05T01:32:02.368Z,52.78
2018-09-05T01:34:29.782Z,51.85
2018-09-05T01:36:57.039Z,53.20
2018-09-05T01:39:24.284Z,53.28
2018-09-05T01:41:51.523Z,54.03
2018-09-05T01:44:18.779Z,53.92
2018-09-05T01:46:46.024Z,52.65
2018-09-05T01:49:13.756Z,53.75
2018-09-05T01:51:41.048Z,50.92
2018-09-05T01:54:08.420Z,50.40
2018-09-05T01:56:35.695Z,52.83
2018-09-05T01:59:04.607Z,52.38
2018-09-05T02:01:31.969Z,55.30
2018-09-05T02:03:59.310Z,47.78
2018-09-05T02:06:28.031Z,47.15
2018-09-05T02:08:55.290Z,38.50
2018-09-05T02:11:22.549Z,38.23
2018-09-05T02:13:50.118Z,36.68
2018-09-05T02:16:17.819Z,36.13
2018-09-05T02:18:45.163Z,35.85
2018-09-05T02:21:12.448Z,33.95
2018-09-05T02:23:39.758Z,41.98
2018-09-05T02:26:07.323Z,59.42
2018-09-05T02:28:34.603Z,54.75
2018-09-05T02:31:03.518Z,55.70
2018-09-05T02:33:30.885Z,54.98
2018-09-05T02:35:59.236Z,51.00
2018-09-05T02:38:26.535Z,49.00
2018-09-05T02:40:53.889Z,49.30
2018-09-05T02:43:26.741Z,46.28
2018-09-05T02:45:54.095Z,44.75
2018-09-05T02:48:21.407Z,50.70
2018-09-05T02:50:49.114Z,46.95
2018-09-05T02:53:16.807Z,43.23
2018-09-05T02:55:49.907Z,44.15
2018-09-05T02:58:17.299Z,44.85
2018-09-05T03:00:44.569Z,45.52
2018-09-05T03:03:11.982Z,48.90
2018-09-05T03:05:39.251Z,34.90
2018-09-05T03:08:06.578Z,33.60
2018-09-05T03:10:33.851Z,32.15
2018-09-05T03:13:01.156Z,30.17
2018-09-05T03:15:28.458Z,30.37
2018-09-05T03:17:55.724Z,31.40
2018-09-05T03:20:23.019Z,38.45
2018-09-05T03:22:50.308Z,44.23
2018-09-05T03:25:17.576Z,45.78
2018-09-05T03:27:45.108Z,44.27
2018-09-05T03:30:12.553Z,45.45
2018-09-05T03:32:40.056Z,46.05
2018-09-05T03:35:07.445Z,43.30
2018-09-05T03:37:34.795Z,50.25
2018-09-05T03:40:02.400Z,46.60
2018-09-05T03:42:29.733Z,45.28
2018-09-05T03:44:57.204Z,44.95
2018-09-05T03:47:24.706Z,46.30
2018-09-05T03:49:52.081Z,44.50
2018-09-05T03:52:19.411Z,49.27
2018-09-05T03:54:46.810Z,45.00
2018-09-05T03:57:14.167Z,45.80
2018-09-05T03:59:41.407Z,48.58
2018-09-05T04:02:08.691Z,57.65
2018-09-05T04:04:35.971Z,53.33
2018-09-05T04:07:03.435Z,53.23
2018-09-05T04:09:31.736Z,45.80
2018-09-05T04:11:59.090Z,41.33
2018-09-05T04:14:26.323Z,49.80
2018-09-05T04:16:53.552Z,115.12
2018-09-05T04:19:20.923Z,81.47
2018-09-05T04:21:48.328Z,86.32
2018-09-05T04:24:15.570Z,81.60
2018-09-05T04:26:42.815Z,90.42
2018-09-05T04:32:05.595Z,51.53
2018-09-05T04:34:32.990Z,60.48
2018-09-05T04:37:00.255Z,71.40
2018-09-05T04:39:27.650Z,80.15
2018-09-05T04:41:55.038Z,73.62
2018-09-05T04:44:22.255Z,72.25
2018-09-05T04:46:49.612Z,67.08
2018-09-05T04:49:16.902Z,80.40
2018-09-05T04:51:44.376Z,73.87
2018-09-05T04:54:11.639Z,70.12
2018-09-05T04:56:38.877Z,76.72
2018-09-05T04:59:06.293Z,67.85
2018-09-05T05:01:33.655Z,42.98
2018-09-05T05:04:01.096Z,49.10
2018-09-05T05:06:28.468Z,40.15
2018-09-05T05:08:55.743Z,47.95
2018-09-05T05:11:23.198Z,39.65
2018-09-05T05:13:50.554Z,39.83
2018-09-05T05:16:17.796Z,38.92
2018-09-05T05:18:45.132Z,35.58
2018-09-05T05:21:12.403Z,35.55
2018-09-05T05:23:39.708Z,35.08
2018-09-05T05:26:07.076Z,36.88
2018-09-05T05:28:34.400Z,35.15
2018-09-05T05:31:01.663Z,35.90
2018-09-05T05:33:29.327Z,48.98
2018-09-05T05:35:56.739Z,67.30
2018-09-05T05:38:24.039Z,58.05
2018-09-05T05:40:51.287Z,46.05
2018-09-05T05:43:18.575Z,34.50
2018-09-05T05:45:46.024Z,36.93
2018-09-05T05:48:13.347Z,38.10
2018-09-05T05:50:40.644Z,43.87
2018-09-05T05:53:08.142Z,64.25
2018-09-05T05:55:35.439Z,60.52
2018-09-05T05:58:02.719Z,62.35
2018-09-05T06:00:31.035Z,68.12
2018-09-05T06:02:58.262Z,70.10
2018-09-05T06:05:25.461Z,93.35
2018-09-05T06:07:52.919Z,135.40
2018-09-05T06:10:24.051Z,99.20
2018-09-05T06:12:51.479Z,93.45
2018-09-05T06:15:18.885Z,76.80
2018-09-05T06:17:46.287Z,92.62
2018-09-05T06:20:13.515Z,86.90
2018-09-05T06:22:40.790Z,79.25
2018-09-05T06:25:08.094Z,63.33
2018-09-05T06:27:35.393Z,57.80
2018-09-05T06:30:02.676Z,72.90
2018-09-05T06:32:29.987Z,88.25
2018-09-05T06:34:57.282Z,90.15
2018-09-05T06:37:24.552Z,79.10
2018-09-05T06:39:52.035Z,56.83
2018-09-05T06:42:19.352Z,61.48
2018-09-05T06:44:46.680Z,53.83
2018-09-05T06:47:14.016Z,37.40
2018-09-05T06:49:41.318Z,31.82
2018-09-05T06:52:08.680Z,35.28
2018-09-05T06:54:35.919Z,57.10
2018-09-05T06:57:03.224Z,52.00
2018-09-05T06:59:30.519Z,55.50
2018-09-05T07:01:57.919Z,30.95
2018-09-05T07:04:25.260Z,48.00
2018-09-05T07:06:52.586Z,29.07
2018-09-05T07:09:19.887Z,28.85
2018-09-05T07:11:47.182Z,33.00
2018-09-05T07:14:14.521Z,34.50
2018-09-05T07:16:41.744Z,51.90
2018-09-05T07:19:11.244Z,37.53
2018-09-05T07:21:38.639Z,54.20
2018-09-05T07:24:06.300Z,39.58
2018-09-05T07:26:33.643Z,36.50
2018-09-05T07:29:00.952Z,57.40
2018-09-05T07:31:28.249Z,60.35
2018-09-05T07:33:55.555Z,37.78
2018-09-05T07:36:22.846Z,35.25
2018-09-05T07:38:50.242Z,29.63
2018-09-05T07:41:17.497Z,29.18
2018-09-05T07:43:44.833Z,34.30
2018-09-05T07:46:13.111Z,29.15
2018-09-05T07:48:40.450Z,31.05
2018-09-05T07:51:07.799Z,31.33
2018-09-05T07:53:35.402Z,31.17
2018-09-05T07:56:02.745Z,32.55
2018-09-05T07:58:32.742Z,33.05
2018-09-05T08:01:00.739Z,33.18
2018-09-05T08:03:28.027Z,34.25
2018-09-05T08:05:55.366Z,35.83
2018-09-05T08:08:22.695Z,33.88
2018-09-05T08:10:50.077Z,33.75
2018-09-05T08:13:17.358Z,36.00
2018-09-05T08:15:44.599Z,33.83
2018-09-05T08:18:12.037Z,33.30
2018-09-05T08:20:39.194Z,33.95
2018-09-05T08:23:06.491Z,33.42
2018-09-05T08:25:33.760Z,33.38
2018-09-05T08:28:01.019Z,37.67
2018-09-05T08:30:28.511Z,37.58
2018-09-05T08:32:55.727Z,37.88
2018-09-05T08:35:23.272Z,33.05
2018-09-05T08:37:50.576Z,34.53
2018-09-05T08:40:17.706Z,32.42
2018-09-05T08:42:44.989Z,35.88
2018-09-05T08:45:12.706Z,32.73
2018-09-05T08:47:39.621Z,33.88
2018-09-05T08:50:06.849Z,32.93
2018-09-05T08:52:34.159Z,34.95
2018-09-05T08:55:01.452Z,33.15
2018-09-05T08:57:28.623Z,32.85
2018-09-05T08:59:55.887Z,32.17
2018-09-05T09:02:23.142Z,31.87
2018-09-05T09:04:50.478Z,30.45
2018-09-05T09:07:25.760Z,30.45
2018-09-05T09:09:53.451Z,28.60
2018-09-05T09:12:20.819Z,28.12
2018-09-05T09:14:48.071Z,27.50
2018-09-05T09:17:15.288Z,27.77
2018-09-05T09:19:42.528Z,26.45
2018-09-05T09:22:10.774Z,26.02
2018-09-05T09:24:38.081Z,25.77
2018-09-05T09:27:05.323Z,25.62
2018-09-05T09:29:32.562Z,25.57
2018-09-05T09:31:59.851Z,25.77
2018-09-05T09:34:27.111Z,25.50
2018-09-05T09:36:54.398Z,24.55
2018-09-05T09:39:22.723Z,23.73
2018-09-05T09:41:50.008Z,22.98
2018-09-05T09:44:17.259Z,22.22
2018-09-05T09:46:44.549Z,22.45
2018-09-05T09:49:11.800Z,22.48
2018-09-05T09:51:39.036Z,21.82
2018-09-05T09:54:06.284Z,21.97
2018-09-05T09:56:40.776Z,22.27
2018-09-05T09:59:08.173Z,21.60
2018-09-05T10:01:41.116Z,23.02
2018-09-05T10:04:14.086Z,22.98
2018-09-05T10:06:46.059Z,22.50
2018-09-05T10:09:19.051Z,21.95
2018-09-05T10:11:52.053Z,22.00
2018-09-05T10:14:24.963Z,22.30
2018-09-05T10:16:57.931Z,22.87
2018-09-05T10:19:25.341Z,23.40
2018-09-05T10:21:53.781Z,21.80
2018-09-05T10:24:21.122Z,22.75
2018-09-05T10:26:48.448Z,22.67
2018-09-05T10:29:15.785Z,21.55
2018-09-05T10:31:43.742Z,19.37
2018-09-05T10:34:29.956Z,18.98
2018-09-05T10:36:57.667Z,18.15
2018-09-05T10:39:25.096Z,17.00
2018-09-05T10:41:58.452Z,16.50
2018-09-05T10:44:25.805Z,15.13
2018-09-05T10:46:59.117Z,16.57
2018-09-05T10:49:26.355Z,16.62
2018-09-05T10:51:53.859Z,17.73
2018-09-05T10:54:21.105Z,16.62
2018-09-05T10:56:48.395Z,15.00
2018-09-05T10:59:21.123Z,16.05
2018-09-05T11:01:57.212Z,14.53
2018-09-05T11:04:24.668Z,15.15
2018-09-05T11:06:51.932Z,15.68
2018-09-05T11:09:19.246Z,16.25
2018-09-05T11:11:46.548Z,14.25
2018-09-05T11:14:13.795Z,13.20
2018-09-05T11:16:41.212Z,13.60
2018-09-05T11:19:09.919Z,13.03
2018-09-05T11:21:37.756Z,14.47
2018-09-05T11:24:05.074Z,12.82
2018-09-05T11:26:32.399Z,12.13
2018-09-05T11:29:03.149Z,11.15
2018-09-05T11:31:30.452Z,12.23
2018-09-05T11:33:57.776Z,11.90
2018-09-05T11:36:25.056Z,12.18
2018-09-05T11:38:52.852Z,12.13
2018-09-05T11:41:26.083Z,11.78
2018-09-05T11:43:53.616Z,11.12
2018-09-05T11:46:21.049Z,10.85
2018-09-05T11:48:49.643Z,10.88
2018-09-05T11:51:17.036Z,10.38
2018-09-05T11:53:44.271Z,9.90
2018-09-05T11:56:11.532Z,9.50
2018-09-05T11:58:39.274Z,9.20
2018-09-05T12:01:06.584Z,9.18
2018-09-05T12:03:33.832Z,7.67
2018-09-05T12:06:07.510Z,8.70
2018-09-05T12:08:35.788Z,8.35
2018-09-05T12:11:04.428Z,8.88
2018-09-05T12:13:31.953Z,9.23
2018-09-05T12:15:59.200Z,7.58
2018-09-05T12:18:26.487Z,7.92
2018-09-05T12:20:53.698Z,7.80
2018-09-05T12:23:21.017Z,9.33
2018-09-05T12:25:48.341Z,8.68
2018-09-05T12:28:15.579Z,8.25
2018-09-05T12:30:42.811Z,7.65
2018-09-05T12:33:10.047Z,8.08
2018-09-05T12:35:37.452Z,8.85
2018-09-05T12:38:04.663Z,10.82
2018-09-05T12:40:31.922Z,10.72
2018-09-05T12:42:59.154Z,12.30
2018-09-05T12:45:26.343Z,13.38
2018-09-05T12:47:53.570Z,13.05
2018-09-05T12:50:21.391Z,13.43
2018-09-05T12:52:48.746Z,13.28
2018-09-05T12:55:16.220Z,13.28
2018-09-05T12:57:43.446Z,12.20
2018-09-05T13:00:10.671Z,11.43
2018-09-05T13:02:38.040Z,12.43
2018-09-05T13:05:05.531Z,12.13
2018-09-05T13:07:32.822Z,11.93
2018-09-05T13:10:00.218Z,11.68
2018-09-05T13:12:27.515Z,11.35
2018-09-05T13:14:54.838Z,11.28
2018-09-05T13:17:22.052Z,11.68
2018-09-05T13:19:49.362Z,11.63
2018-09-05T13:22:16.651Z,12.47
2018-09-05T13:24:44.180Z,11.08
2018-09-05T13:27:11.412Z,11.28
2018-09-05T13:29:38.618Z,11.05
2018-09-05T13:32:05.868Z,12.37
2018-09-05T13:34:33.210Z,11.55
2018-09-05T13:37:00.443Z,12.03
2018-09-05T13:39:27.660Z,11.63
2018-09-05T13:41:54.875Z,11.08
2018-09-05T13:44:22.132Z,11.00
2018-09-05T13:46:49.404Z,11.18
2018-09-05T13:49:16.663Z,12.05
2018-09-05T13:51:48.692Z,11.68
2018-09-05T13:54:15.895Z,11.35
2018-09-05T13:56:43.248Z,11.55
2018-09-05T13:59:10.523Z,11.95
2018-09-05T14:01:37.725Z,10.25
2018-09-05T14:04:05.315Z,10.88
2018-09-05T14:06:32.515Z,11.22
2018-09-05T14:08:59.751Z,10.70
2018-09-05T14:11:26.962Z,11.30
2018-09-05T14:13:54.158Z,11.20
2018-09-05T14:16:21.423Z,11.80
2018-09-05T14:18:48.652Z,12.00
2018-09-05T14:21:15.922Z,12.75
2018-09-05T14:23:43.188Z,12.30
2018-09-05T14:26:10.413Z,12.15
2018-09-05T14:28:37.964Z,13.80
2018-09-05T14:31:05.250Z,12.65
2018-09-05T14:33:34.095Z,13.05
2018-09-05T14:36:09.171Z,13.05
2018-09-05T14:38:37.111Z,14.58
2018-09-05T14:41:04.427Z,13.30
2018-09-05T14:43:32.104Z,13.95
2018-09-05T14:46:00.028Z,14.60
2018-09-05T14:48:27.340Z,13.90
2018-09-05T14:50:54.607Z,14.15
2018-09-05T14:53:21.807Z,13.98
2018-09-05T14:55:49.028Z,14.30
2018-09-05T14:58:16.307Z,15.18
2018-09-05T15:00:44.278Z,14.38
2018-09-05T15:03:11.542Z,16.97
2018-09-05T15:05:38.927Z,15.15
2018-09-05T15:08:06.486Z,15.03
2018-09-05T15:10:33.843Z,15.10
2018-09-05T15:13:01.185Z,15.25
2018-09-05T15:15:28.497Z,15.63
2018-09-05T15:17:56.173Z,16.90
2018-09-05T15:20:23.762Z,15.95
2018-09-05T15:22:50.987Z,15.90
2018-09-05T15:25:18.339Z,16.25
2018-09-05T15:27:45.640Z,15.05
2018-09-05T15:30:12.936Z,15.08
2018-09-05T15:32:40.152Z,14.78
2018-09-05T15:35:07.410Z,16.75
2018-09-05T15:37:34.650Z,17.98
2018-09-05T15:40:01.948Z,15.93
2018-09-05T15:42:29.164Z,16.02
2018-09-05T15:44:56.424Z,16.12
2018-09-05T15:47:23.707Z,16.87
2018-09-05T15:49:50.959Z,16.27
2018-09-05T15:52:18.193Z,15.28
2018-09-05T15:54:45.426Z,16.25
2018-09-05T15:57:12.674Z,15.98
2018-09-05T15:59:39.912Z,15.23
2018-09-05T16:02:07.184Z,15.28
2018-09-05T16:04:34.492Z,15.15
2018-09-05T16:07:01.728Z,14.73
2018-09-05T16:09:28.942Z,16.17
2018-09-05T16:11:56.205Z,14.90
2018-09-05T16:14:23.446Z,15.50
2018-09-05T16:16:50.683Z,15.15
2018-09-05T16:19:17.902Z,15.98
2018-09-05T16:21:45.163Z,15.53
2018-09-05T16:24:12.411Z,17.07
2018-09-05T16:26:39.820Z,16.15
2018-09-05T16:29:07.066Z,17.30
2018-09-05T16:31:34.329Z,16.45
2018-09-05T16:34:01.610Z,17.27
2018-09-05T16:36:28.870Z,16.50
2018-09-05T16:38:56.103Z,17.50
2018-09-05T16:41:23.343Z,17.07
2018-09-05T16:43:50.586Z,18.07
2018-09-05T16:46:17.857Z,18.20
2018-09-05T16:48:45.094Z,17.37
2018-09-05T16:51:12.354Z,18.37
2018-09-05T16:53:39.596Z,17.92
2018-09-05T16:56:06.891Z,18.92
2018-09-05T16:58:34.143Z,18.95
2018-09-05T17:01:01.451Z,18.85
2018-09-05T17:03:28.628Z,18.70
2018-09-05T17:05:55.835Z,18.12
2018-09-05T17:08:23.067Z,19.20
2018-09-05T17:10:50.287Z,18.60
2018-09-05T17:13:17.567Z,19.00
2018-09-05T17:15:44.951Z,20.45
2018-09-05T17:18:12.266Z,18.80
2018-09-05T17:20:41.102Z,18.35
2018-09-05T17:23:08.615Z,18.67
2018-09-05T17:25:37.321Z,18.67
2018-09-05T17:28:05.029Z,19.23
2018-09-05T17:33:47.429Z,19.62
2018-09-05T17:36:14.831Z,18.87
2018-09-05T17:38:43.304Z,19.67
2018-09-05T17:41:10.732Z,19.25
2018-09-05T17:43:38.085Z,19.55
2018-09-05T17:46:05.429Z,19.37
2018-09-05T17:48:32.920Z,20.08
2018-09-05T17:51:06.315Z,19.90
2018-09-05T17:53:33.663Z,19.05
2018-09-05T17:56:02.055Z,22.87
2018-09-05T17:58:29.663Z,21.40
2018-09-05T18:01:01.439Z,20.68
2018-09-05T18:03:30.421Z,20.32
2018-09-05T18:05:57.763Z,24.85
2018-09-05T18:08:25.261Z,20.88
2018-09-05T18:10:53.297Z,22.10
2018-09-05T18:13:21.302Z,20.90
2018-09-05T18:15:49.009Z,21.48
2018-09-05T18:18:18.082Z,21.68
2018-09-05T18:20:45.491Z,22.13
2018-09-05T18:23:15.555Z,22.07
2018-09-05T18:25:43.068Z,21.52
2018-09-05T18:28:10.579Z,22.30
2018-09-05T18:30:39.772Z,22.75
2018-09-05T18:33:07.183Z,22.45
2018-09-05T18:35:34.489Z,23.30
2018-09-05T18:38:01.905Z,23.57
2018-09-05T18:40:30.321Z,23.00
2018-09-05T18:42:57.749Z,23.90
2018-09-05T18:45:25.035Z,23.52
2018-09-05T18:47:52.620Z,23.75
2018-09-05T18:50:22.388Z,23.70
2018-09-05T18:52:54.773Z,22.62
2018-09-05T18:55:25.154Z,23.50
2018-09-05T18:57:52.573Z,25.00
2018-09-05T19:00:19.939Z,25.00
2018-09-05T19:02:47.256Z,25.12
2018-09-05T19:05:14.538Z,24.98
2018-09-05T19:07:41.904Z,24.98
2018-09-05T19:10:09.260Z,26.17
2018-09-05T19:12:36.533Z,25.40
2018-09-05T19:15:03.889Z,24.20
2018-09-05T19:17:31.182Z,24.77
2018-09-05T19:19:58.546Z,24.85
2018-09-05T19:22:25.995Z,24.77
2018-09-05T19:24:53.267Z,24.87
2018-09-05T19:27:21.774Z,25.48
2018-09-05T19:29:49.206Z,24.55
2018-09-05T19:32:16.519Z,24.90
2018-09-05T19:34:43.849Z,26.27
2018-09-05T19:37:11.156Z,28.98
2018-09-05T19:39:38.465Z,26.70
2018-09-05T19:42:06.016Z,25.85
2018-09-05T19:44:33.307Z,27.52
2018-09-05T19:47:00.596Z,26.73
2018-09-05T19:49:30.356Z,26.52
2018-09-05T19:51:59.075Z,26.80
2018-09-05T19:54:31.545Z,27.00
2018-09-05T19:57:00.564Z,26.40
2018-09-05T19:59:28.915Z,26.23
2018-09-05T20:01:56.283Z,27.70
2018-09-05T20:04:23.688Z,29.02
2018-09-05T20:06:51.872Z,28.42
2018-09-05T20:09:19.342Z,28.02
2018-09-05T20:12:00.405Z,28.92
2018-09-05T20:14:27.709Z,28.85
2018-09-05T20:16:55.029Z,31.02
2018-09-05T20:19:22.335Z,29.45
2018-09-05T20:21:50.528Z,29.67
2018-09-05T20:24:17.888Z,29.02
2018-09-05T20:26:45.196Z,30.75
2018-09-05T20:29:12.480Z,30.10
2018-09-05T20:31:39.803Z,30.15
2018-09-05T20:34:07.132Z,30.50
2018-09-05T20:36:34.485Z,29.95
2018-09-05T20:39:01.796Z,30.68
2018-09-05T20:41:29.107Z,32.35
2018-09-05T20:43:56.403Z,30.32
2018-09-05T20:46:24.782Z,29.90
2018-09-05T20:48:53.840Z,32.83
2018-09-05T20:51:21.385Z,31.65
2018-09-05T20:53:48.676Z,34.55
2018-09-05T20:56:16.014Z,32.23
2018-09-05T20:58:43.365Z,33.00
2018-09-05T21:01:10.623Z,32.28
2018-09-05T21:03:37.895Z,32.88
2018-09-05T21:06:05.760Z,33.92
2018-09-05T21:08:33.251Z,33.73
2018-09-05T21:11:00.643Z,33.02
2018-09-05T21:13:28.015Z,33.60
2018-09-05T21:15:55.475Z,32.38
2018-09-05T21:18:29.744Z,30.92
2018-09-05T21:20:58.984Z,29.77
2018-09-05T21:23:27.287Z,29.23
2018-09-05T21:25:54.560Z,30.23
2018-09-05T21:28:21.834Z,31.55
2018-09-05T21:30:49.099Z,29.85
2018-09-05T21:33:16.864Z,29.95
2018-09-05T21:35:44.087Z,31.57
2018-09-05T21:38:13.648Z,30.85
2018-09-05T21:40:41.230Z,31.45
2018-09-05T21:43:08.572Z,34.10
2018-09-05T21:45:35.883Z,31.68
2018-09-05T21:48:03.886Z,32.35
2018-09-05T21:50:31.208Z,33.15
2018-09-05T21:52:58.656Z,35.85
2018-09-05T21:55:25.979Z,32.83
2018-09-05T21:57:53.483Z,32.93
2018-09-05T22:00:20.781Z,35.48
2018-09-05T22:02:48.159Z,36.10
2018-09-05T22:05:15.463Z,35.17
2018-09-05T22:07:42.783Z,35.43
2018-09-05T22:10:10.056Z,35.03
2018-09-05T22:12:37.290Z,34.45
2018-09-05T22:15:04.997Z,35.48
2018-09-05T22:17:32.259Z,36.65
2018-09-05T22:19:59.595Z,34.43
2018-09-05T22:22:26.960Z,36.40
2018-09-05T22:24:54.289Z,35.58
2018-09-05T22:27:21.624Z,35.75
2018-09-05T22:29:49.598Z,38.80
2018-09-05T22:32:16.905Z,38.48
2018-09-05T22:34:44.263Z,37.75
2018-09-05T22:37:11.636Z,38.45
2018-09-05T22:39:39.652Z,35.50
2018-09-05T22:42:06.979Z,36.05
2018-09-05T22:44:45.923Z,33.42
2018-09-05T22:47:24.953Z,31.87
2018-09-05T22:51:11.121Z,31.93
2018-09-05T22:54:55.632Z,31.95
2018-09-05T22:59:38.202Z,32.45
2018-09-05T23:04:28.084Z,30.88
2018-09-05T23:07:10.584Z,36.77
2018-09-05T23:09:49.602Z,39.83
2018-09-05T23:12:28.445Z,36.42
2018-09-05T23:15:07.122Z,37.33
2018-09-05T23:19:51.777Z,33.38
2018-09-05T23:22:19.333Z,30.90
2018-09-05T23:24:47.101Z,37.53
2018-09-05T23:27:15.379Z,38.70
2018-09-05T23:29:43.073Z,39.58
2018-09-05T23:32:10.493Z,36.90
2018-09-05T23:34:38.666Z,38.98
2018-09-05T23:37:05.977Z,39.13
2018-09-05T23:39:39.110Z,40.50
2018-09-05T23:42:07.238Z,37.88
2018-09-05T23:44:34.632Z,36.58
2018-09-05T23:47:02.121Z,38.17
2018-09-05T23:49:29.570Z,39.80
2018-09-05T23:51:57.620Z,39.30
2018-09-05T23:54:24.996Z,37.17
2018-09-05T23:56:52.305Z,40.35
2018-09-05T23:59:19.599Z,38.70
